sensor_id;sensor_type;location;lat;lon;timestamp;temperature;humidity
23769;DHT22;12064;50.890;5.424;2022-07-23T00:06:18;28.30;70.80
23769;DHT22;12064;50.890;5.424;2022-07-23T00:15:09;28.50;70.50
23769;DHT22;12064;50.890;5.424;2022-07-23T00:24:00;28.40;70.50
23769;DHT22;12064;50.890;5.424;2022-07-23T00:32:55;28.40;70.60
23769;DHT22;12064;50.890;5.424;2022-07-23T00:42:16;28.30;70.60
23769;DHT22;12064;50.890;5.424;2022-07-23T00:51:06;28.30;70.50
23769;DHT22;12064;50.890;5.424;2022-07-23T00:59:57;28.30;70.60
23769;DHT22;12064;50.890;5.424;2022-07-23T01:08:51;28.30;70.70
23769;DHT22;12064;50.890;5.424;2022-07-23T01:17:55;28.30;70.40
23769;DHT22;12064;50.890;5.424;2022-07-23T01:27:16;28.10;70.70
23769;DHT22;12064;50.890;5.424;2022-07-23T01:36:09;28.10;70.90
23769;DHT22;12064;50.890;5.424;2022-07-23T01:45:04;28.30;70.30
23769;DHT22;12064;50.890;5.424;2022-07-23T02:03:33;28.00;70.50
23769;DHT22;12064;50.890;5.424;2022-07-23T02:12:24;28.40;69.70
23769;DHT22;12064;50.890;5.424;2022-07-23T02:21:15;28.20;69.90
23769;DHT22;12064;50.890;5.424;2022-07-23T02:30:08;28.10;70.20
23769;DHT22;12064;50.890;5.424;2022-07-23T02:38:59;28.20;69.70
23769;DHT22;12064;50.890;5.424;2022-07-23T02:47:50;28.10;70.10
23769;DHT22;12064;50.890;5.424;2022-07-23T02:56:43;28.30;69.30
23769;DHT22;12064;50.890;5.424;2022-07-23T03:05:34;28.10;69.70
23769;DHT22;12064;50.890;5.424;2022-07-23T03:14:28;28.10;69.60
23769;DHT22;12064;50.890;5.424;2022-07-23T03:23:21;28.00;69.60
23769;DHT22;12064;50.890;5.424;2022-07-23T03:32:45;28.00;69.60
23769;DHT22;12064;50.890;5.424;2022-07-23T03:41:36;27.80;69.80
23769;DHT22;12064;50.890;5.424;2022-07-23T03:50:27;27.90;69.60
23769;DHT22;12064;50.890;5.424;2022-07-23T03:59:17;27.80;69.40
23769;DHT22;12064;50.890;5.424;2022-07-23T04:08:11;27.90;68.90
23769;DHT22;12064;50.890;5.424;2022-07-23T04:17:01;27.90;68.90
23769;DHT22;12064;50.890;5.424;2022-07-23T04:25:55;27.90;68.70
23769;DHT22;12064;50.890;5.424;2022-07-23T04:34:46;27.90;68.60
23769;DHT22;12064;50.890;5.424;2022-07-23T04:44:10;27.80;68.70
23769;DHT22;12064;50.890;5.424;2022-07-23T04:53:01;27.70;68.80
23769;DHT22;12064;50.890;5.424;2022-07-23T05:01:54;27.80;68.70
23769;DHT22;12064;50.890;5.424;2022-07-23T05:10:46;27.90;68.60
23769;DHT22;12064;50.890;5.424;2022-07-23T05:19:36;27.90;68.70
23769;DHT22;12064;50.890;5.424;2022-07-23T05:28:30;27.90;68.60
23769;DHT22;12064;50.890;5.424;2022-07-23T05:37:22;28.00;68.50
23769;DHT22;12064;50.890;5.424;2022-07-23T05:46:21;27.90;69.00
23769;DHT22;12064;50.890;5.424;2022-07-23T05:55:15;27.40;70.40
23769;DHT22;12064;50.890;5.424;2022-07-23T06:04:06;27.30;70.80
23769;DHT22;12064;50.890;5.424;2022-07-23T06:12:57;27.30;70.80
23769;DHT22;12064;50.890;5.424;2022-07-23T06:21:47;27.20;71.20
23769;DHT22;12064;50.890;5.424;2022-07-23T06:30:41;27.30;71.00
23769;DHT22;12064;50.890;5.424;2022-07-23T06:39:31;27.40;71.00
23769;DHT22;12064;50.890;5.424;2022-07-23T06:48:25;27.40;71.30
23769;DHT22;12064;50.890;5.424;2022-07-23T06:57:40;27.50;71.50
23769;DHT22;12064;50.890;5.424;2022-07-23T07:06:39;27.50;71.70
23769;DHT22;12064;50.890;5.424;2022-07-23T07:15:33;27.60;71.70
23769;DHT22;12064;50.890;5.424;2022-07-23T07:24:23;27.70;71.70
23769;DHT22;12064;50.890;5.424;2022-07-23T07:33:14;27.60;72.10
23769;DHT22;12064;50.890;5.424;2022-07-23T07:42:05;27.60;72.00
23769;DHT22;12064;50.890;5.424;2022-07-23T07:50:58;27.60;72.50
23769;DHT22;12064;50.890;5.424;2022-07-23T07:59:49;27.70;72.30
23769;DHT22;12064;50.890;5.424;2022-07-23T08:08:39;27.70;72.20
23769;DHT22;12064;50.890;5.424;2022-07-23T08:17:33;27.80;71.90
23769;DHT22;12064;50.890;5.424;2022-07-23T08:26:23;27.80;71.50
23769;DHT22;12064;50.890;5.424;2022-07-23T08:35:14;28.00;71.10
23769;DHT22;12064;50.890;5.424;2022-07-23T08:44:07;28.00;70.70
23769;DHT22;12064;50.890;5.424;2022-07-23T08:53:01;28.10;70.50
23769;DHT22;12064;50.890;5.424;2022-07-23T09:01:53;28.30;70.00
23769;DHT22;12064;50.890;5.424;2022-07-23T09:19:39;28.30;70.10
23769;DHT22;12064;50.890;5.424;2022-07-23T09:28:30;28.40;69.40
23769;DHT22;12064;50.890;5.424;2022-07-23T09:37:20;28.40;69.30
23769;DHT22;12064;50.890;5.424;2022-07-23T09:55:39;28.30;69.20
23769;DHT22;12064;50.890;5.424;2022-07-23T10:04:30;28.40;68.70
23769;DHT22;12064;50.890;5.424;2022-07-23T10:13:21;28.50;68.60
23769;DHT22;12064;50.890;5.424;2022-07-23T10:22:33;28.50;68.30
23769;DHT22;12064;50.890;5.424;2022-07-23T10:40:22;28.50;68.90
23769;DHT22;12064;50.890;5.424;2022-07-23T10:49:28;28.50;68.80
23769;DHT22;12064;50.890;5.424;2022-07-23T10:58:21;28.40;69.00
23769;DHT22;12064;50.890;5.424;2022-07-23T11:07:12;28.50;68.70
23769;DHT22;12064;50.890;5.424;2022-07-23T11:24:57;28.50;68.70
23769;DHT22;12064;50.890;5.424;2022-07-23T11:43:17;28.50;68.80
23769;DHT22;12064;50.890;5.424;2022-07-23T11:52:13;28.60;68.50
23769;DHT22;12064;50.890;5.424;2022-07-23T12:01:04;28.50;68.60
23769;DHT22;12064;50.890;5.424;2022-07-23T12:09:58;28.60;68.50
23769;DHT22;12064;50.890;5.424;2022-07-23T12:18:50;28.60;68.40
23769;DHT22;12064;50.890;5.424;2022-07-23T12:27:42;28.60;68.40
23769;DHT22;12064;50.890;5.424;2022-07-23T12:36:39;28.60;68.30
23769;DHT22;12064;50.890;5.424;2022-07-23T12:55:26;28.60;68.50
23769;DHT22;12064;50.890;5.424;2022-07-23T13:04:19;28.60;68.50
23769;DHT22;12064;50.890;5.424;2022-07-23T13:13:11;28.70;68.20
23769;DHT22;12064;50.890;5.424;2022-07-23T13:22:02;28.70;68.20
23769;DHT22;12064;50.890;5.424;2022-07-23T13:30:52;28.80;68.00
23769;DHT22;12064;50.890;5.424;2022-07-23T13:39:43;28.80;68.10
23769;DHT22;12064;50.890;5.424;2022-07-23T13:48:34;28.90;67.90
23769;DHT22;12064;50.890;5.424;2022-07-23T13:57:24;28.90;67.70
23769;DHT22;12064;50.890;5.424;2022-07-23T14:06:18;28.90;67.80
23769;DHT22;12064;50.890;5.424;2022-07-23T14:15:09;28.90;67.90
23769;DHT22;12064;50.890;5.424;2022-07-23T14:24:00;29.00;67.50
23769;DHT22;12064;50.890;5.424;2022-07-23T14:32:51;29.00;67.70
23769;DHT22;12064;50.890;5.424;2022-07-23T14:41:41;29.00;67.70
23769;DHT22;12064;50.890;5.424;2022-07-23T14:50:32;29.10;67.60
23769;DHT22;12064;50.890;5.424;2022-07-23T14:59:23;29.10;67.60
23769;DHT22;12064;50.890;5.424;2022-07-23T15:08:13;29.10;67.70
23769;DHT22;12064;50.890;5.424;2022-07-23T15:17:04;29.10;67.70
23769;DHT22;12064;50.890;5.424;2022-07-23T15:25:56;29.10;67.70
23769;DHT22;12064;50.890;5.424;2022-07-23T15:34:48;29.10;67.60
23769;DHT22;12064;50.890;5.424;2022-07-23T15:43:41;29.10;67.70
23769;DHT22;12064;50.890;5.424;2022-07-23T15:52:36;29.10;67.80
23769;DHT22;12064;50.890;5.424;2022-07-23T16:01:30;29.10;67.70
23769;DHT22;12064;50.890;5.424;2022-07-23T16:10:23;29.30;67.60
23769;DHT22;12064;50.890;5.424;2022-07-23T16:19:13;29.10;67.80
23769;DHT22;12064;50.890;5.424;2022-07-23T16:28:07;29.30;67.70
23769;DHT22;12064;50.890;5.424;2022-07-23T16:36:57;29.20;67.80
23769;DHT22;12064;50.890;5.424;2022-07-23T16:45:51;29.20;67.80
23769;DHT22;12064;50.890;5.424;2022-07-23T16:54:43;29.20;67.90
23769;DHT22;12064;50.890;5.424;2022-07-23T17:03:33;29.30;67.80
23769;DHT22;12064;50.890;5.424;2022-07-23T17:12:31;29.20;68.00
23769;DHT22;12064;50.890;5.424;2022-07-23T17:21:21;29.20;68.20
23769;DHT22;12064;50.890;5.424;2022-07-23T17:30:24;29.20;68.20
23769;DHT22;12064;50.890;5.424;2022-07-23T17:39:18;29.20;68.10
23769;DHT22;12064;50.890;5.424;2022-07-23T17:48:11;29.30;67.90
23769;DHT22;12064;50.890;5.424;2022-07-23T17:57:24;29.40;67.90
23769;DHT22;12064;50.890;5.424;2022-07-23T18:06:36;29.30;68.20
23769;DHT22;12064;50.890;5.424;2022-07-23T18:24:46;29.10;68.40
23769;DHT22;12064;50.890;5.424;2022-07-23T18:33:37;29.50;67.80
23769;DHT22;12064;50.890;5.424;2022-07-23T18:42:28;29.40;67.80
23769;DHT22;12064;50.890;5.424;2022-07-23T18:51:27;29.40;68.10
23769;DHT22;12064;50.890;5.424;2022-07-23T19:00:21;29.40;68.10
23769;DHT22;12064;50.890;5.424;2022-07-23T19:09:11;29.50;68.40
23769;DHT22;12064;50.890;5.424;2022-07-23T19:18:05;29.50;67.90
23769;DHT22;12064;50.890;5.424;2022-07-23T19:27:02;29.40;67.80
23769;DHT22;12064;50.890;5.424;2022-07-23T19:35:55;29.50;67.70
23769;DHT22;12064;50.890;5.424;2022-07-23T19:44:46;29.40;67.80
23769;DHT22;12064;50.890;5.424;2022-07-23T19:53:44;29.40;67.80
23769;DHT22;12064;50.890;5.424;2022-07-23T20:02:35;29.40;67.80
23769;DHT22;12064;50.890;5.424;2022-07-23T20:11:28;29.40;67.90
23769;DHT22;12064;50.890;5.424;2022-07-23T20:20:23;29.40;68.20
23769;DHT22;12064;50.890;5.424;2022-07-23T20:29:18;29.40;67.70
23769;DHT22;12064;50.890;5.424;2022-07-23T20:38:09;29.30;67.70
23769;DHT22;12064;50.890;5.424;2022-07-23T20:47:25;29.40;67.70
23769;DHT22;12064;50.890;5.424;2022-07-23T20:56:16;29.30;68.00
23769;DHT22;12064;50.890;5.424;2022-07-23T21:05:10;29.40;69.20
23769;DHT22;12064;50.890;5.424;2022-07-23T21:14:01;29.50;68.90
23769;DHT22;12064;50.890;5.424;2022-07-23T21:22:51;29.60;68.70
23769;DHT22;12064;50.890;5.424;2022-07-23T21:31:42;29.70;68.40
23769;DHT22;12064;50.890;5.424;2022-07-23T21:40:33;29.50;68.80
23769;DHT22;12064;50.890;5.424;2022-07-23T21:49:24;29.80;68.30
23769;DHT22;12064;50.890;5.424;2022-07-23T21:58:14;29.90;68.00
23769;DHT22;12064;50.890;5.424;2022-07-23T22:07:05;30.00;67.60
23769;DHT22;12064;50.890;5.424;2022-07-23T22:15:56;30.00;67.70
23769;DHT22;12064;50.890;5.424;2022-07-23T22:24:46;30.00;67.60
23769;DHT22;12064;50.890;5.424;2022-07-23T22:33:37;30.00;67.60
23769;DHT22;12064;50.890;5.424;2022-07-23T22:42:35;30.10;67.50
23769;DHT22;12064;50.890;5.424;2022-07-23T22:51:34;29.80;68.10
23769;DHT22;12064;50.890;5.424;2022-07-23T23:00:28;29.80;67.90
23769;DHT22;12064;50.890;5.424;2022-07-23T23:09:37;29.80;68.10
23769;DHT22;12064;50.890;5.424;2022-07-23T23:18:28;29.80;68.20
23769;DHT22;12064;50.890;5.424;2022-07-23T23:27:19;30.00;67.90
23769;DHT22;12064;50.890;5.424;2022-07-23T23:36:27;30.10;67.60
23769;DHT22;12064;50.890;5.424;2022-07-23T23:45:17;29.70;68.10
23769;DHT22;12064;50.890;5.424;2022-07-23T23:54:16;29.70;68.00
